sensor_id;sensor_type;location;lat;lon;timestamp;P1;durP1;ratioP1;P2;durP2;ratioP2
55663;SDS011;41540;57.880;12.164;2022-07-01T00:05:22;4.65;;;2.92;;
55663;SDS011;41540;57.880;12.164;2022-07-01T00:15:22;3.22;;;2.92;;
55663;SDS011;41540;57.880;12.164;2022-07-01T00:25:23;4.95;;;3.05;;
55663;SDS011;41540;57.880;12.164;2022-07-01T00:35:23;3.00;;;2.70;;
55663;SDS011;41540;57.880;12.164;2022-07-01T00:45:24;2.75;;;2.55;;
55663;SDS011;41540;57.880;12.164;2022-07-01T00:55:24;3.70;;;3.30;;
55663;SDS011;41540;57.880;12.164;2022-07-01T01:05:25;3.05;;;2.83;;
55663;SDS011;41540;57.880;12.164;2022-07-01T01:15:25;4.55;;;2.88;;
55663;SDS011;41540;57.880;12.164;2022-07-01T01:25:27;3.65;;;3.35;;
55663;SDS011;41540;57.880;12.164;2022-07-01T01:35:27;5.17;;;3.60;;
55663;SDS011;41540;57.880;12.164;2022-07-01T01:45:28;4.80;;;3.42;;
55663;SDS011;41540;57.880;12.164;2022-07-01T01:55:28;9.30;;;3.60;;
55663;SDS011;41540;57.880;12.164;2022-07-01T02:05:29;4.10;;;3.70;;
55663;SDS011;41540;57.880;12.164;2022-07-01T02:15:30;3.38;;;3.08;;
55663;SDS011;41540;57.880;12.164;2022-07-01T02:25:30;4.75;;;3.75;;
55663;SDS011;41540;57.880;12.164;2022-07-01T02:35:34;6.20;;;4.38;;
55663;SDS011;41540;57.880;12.164;2022-07-01T02:45:36;5.63;;;4.93;;
55663;SDS011;41540;57.880;12.164;2022-07-01T02:55:36;5.00;;;4.50;;
55663;SDS011;41540;57.880;12.164;2022-07-01T03:05:37;3.83;;;3.53;;
55663;SDS011;41540;57.880;12.164;2022-07-01T03:15:37;4.57;;;4.25;;
55663;SDS011;41540;57.880;12.164;2022-07-01T03:25:38;4.28;;;3.88;;
55663;SDS011;41540;57.880;12.164;2022-07-01T03:35:38;2.90;;;2.70;;
55663;SDS011;41540;57.880;12.164;2022-07-01T03:45:39;5.10;;;3.53;;
55663;SDS011;41540;57.880;12.164;2022-07-01T03:55:40;3.50;;;3.05;;
55663;SDS011;41540;57.880;12.164;2022-07-01T04:05:41;2.55;;;2.35;;
55663;SDS011;41540;57.880;12.164;2022-07-01T04:15:41;2.75;;;2.55;;
55663;SDS011;41540;57.880;12.164;2022-07-01T04:25:41;3.03;;;2.72;;
55663;SDS011;41540;57.880;12.164;2022-07-01T04:35:42;2.17;;;1.98;;
55663;SDS011;41540;57.880;12.164;2022-07-01T04:45:42;3.63;;;1.90;;
55663;SDS011;41540;57.880;12.164;2022-07-01T04:55:42;2.38;;;2.00;;
55663;SDS011;41540;57.880;12.164;2022-07-01T05:05:43;2.17;;;1.60;;
55663;SDS011;41540;57.880;12.164;2022-07-01T05:15:43;2.22;;;1.63;;
55663;SDS011;41540;57.880;12.164;2022-07-01T05:25:44;3.40;;;2.08;;
55663;SDS011;41540;57.880;12.164;2022-07-01T05:35:44;2.00;;;1.80;;
55663;SDS011;41540;57.880;12.164;2022-07-01T05:45:45;2.88;;;1.77;;
55663;SDS011;41540;57.880;12.164;2022-07-01T05:55:45;2.92;;;1.77;;
55663;SDS011;41540;57.880;12.164;2022-07-01T06:05:46;1.97;;;1.67;;
55663;SDS011;41540;57.880;12.164;2022-07-01T06:15:46;4.40;;;1.30;;
55663;SDS011;41540;57.880;12.164;2022-07-01T06:25:47;2.03;;;1.83;;
55663;SDS011;41540;57.880;12.164;2022-07-01T06:35:47;3.88;;;1.85;;
55663;SDS011;41540;57.880;12.164;2022-07-01T06:45:48;2.08;;;1.35;;
55663;SDS011;41540;57.880;12.164;2022-07-01T06:55:48;3.20;;;1.98;;
55663;SDS011;41540;57.880;12.164;2022-07-01T07:15:49;2.70;;;1.90;;
55663;SDS011;41540;57.880;12.164;2022-07-01T07:25:49;3.83;;;1.83;;
55663;SDS011;41540;57.880;12.164;2022-07-01T07:35:50;2.22;;;1.65;;
55663;SDS011;41540;57.880;12.164;2022-07-01T07:45:50;1.73;;;1.63;;
55663;SDS011;41540;57.880;12.164;2022-07-01T07:55:51;5.65;;;2.03;;
55663;SDS011;41540;57.880;12.164;2022-07-01T08:05:51;1.80;;;1.30;;
55663;SDS011;41540;57.880;12.164;2022-07-01T08:15:52;1.40;;;1.30;;
55663;SDS011;41540;57.880;12.164;2022-07-01T08:25:53;3.17;;;1.75;;
55663;SDS011;41540;57.880;12.164;2022-07-01T08:35:53;2.88;;;1.77;;
55663;SDS011;41540;57.880;12.164;2022-07-01T08:45:54;1.95;;;1.70;;
55663;SDS011;41540;57.880;12.164;2022-07-01T08:55:54;1.43;;;1.33;;
55663;SDS011;41540;57.880;12.164;2022-07-01T09:06:20;2.10;;;1.83;;
55663;SDS011;41540;57.880;12.164;2022-07-01T09:16:22;2.15;;;1.70;;
55663;SDS011;41540;57.880;12.164;2022-07-01T09:26:22;2.30;;;2.00;;
55663;SDS011;41540;57.880;12.164;2022-07-01T09:36:23;4.57;;;1.85;;
55663;SDS011;41540;57.880;12.164;2022-07-01T09:46:24;1.85;;;1.67;;
55663;SDS011;41540;57.880;12.164;2022-07-01T09:56:25;1.70;;;1.60;;
55663;SDS011;41540;57.880;12.164;2022-07-01T10:06:42;4.28;;;2.10;;
55663;SDS011;41540;57.880;12.164;2022-07-01T10:16:51;11.90;;;2.17;;
55663;SDS011;41540;57.880;12.164;2022-07-01T10:26:51;2.50;;;2.03;;
55663;SDS011;41540;57.880;12.164;2022-07-01T10:37:02;1.65;;;1.55;;
55663;SDS011;41540;57.880;12.164;2022-07-01T10:47:05;2.95;;;2.38;;
55663;SDS011;41540;57.880;12.164;2022-07-01T11:07:19;3.83;;;2.40;;
55663;SDS011;41540;57.880;12.164;2022-07-01T11:17:20;4.18;;;2.47;;
55663;SDS011;41540;57.880;12.164;2022-07-01T11:27:21;4.70;;;2.95;;
55663;SDS011;41540;57.880;12.164;2022-07-01T11:37:30;4.13;;;2.60;;
55663;SDS011;41540;57.880;12.164;2022-07-01T11:47:50;5.15;;;2.10;;
55663;SDS011;41540;57.880;12.164;2022-07-01T11:57:50;2.08;;;1.95;;
55663;SDS011;41540;57.880;12.164;2022-07-01T12:07:52;3.90;;;2.00;;
55663;SDS011;41540;57.880;12.164;2022-07-01T12:18:04;2.13;;;2.00;;
55663;SDS011;41540;57.880;12.164;2022-07-01T12:28:05;4.18;;;2.47;;
55663;SDS011;41540;57.880;12.164;2022-07-01T12:38:05;2.47;;;2.28;;
55663;SDS011;41540;57.880;12.164;2022-07-01T12:48:08;3.00;;;2.40;;
55663;SDS011;41540;57.880;12.164;2022-07-01T12:58:12;1.63;;;1.52;;
55663;SDS011;41540;57.880;12.164;2022-07-01T13:08:17;6.87;;;2.40;;
55663;SDS011;41540;57.880;12.164;2022-07-01T13:18:19;3.05;;;1.48;;
55663;SDS011;41540;57.880;12.164;2022-07-01T13:28:19;2.13;;;1.67;;
55663;SDS011;41540;57.880;12.164;2022-07-01T13:38:20;2.17;;;1.85;;
55663;SDS011;41540;57.880;12.164;2022-07-01T13:48:20;5.25;;;2.30;;
55663;SDS011;41540;57.880;12.164;2022-07-01T13:58:21;4.80;;;2.38;;
55663;SDS011;41540;57.880;12.164;2022-07-01T14:08:21;3.67;;;2.13;;
55663;SDS011;41540;57.880;12.164;2022-07-01T14:18:24;2.17;;;1.98;;
55663;SDS011;41540;57.880;12.164;2022-07-01T14:28:24;4.63;;;2.03;;
55663;SDS011;41540;57.880;12.164;2022-07-01T14:38:25;3.20;;;2.90;;
55663;SDS011;41540;57.880;12.164;2022-07-01T14:48:25;3.67;;;3.20;;
55663;SDS011;41540;57.880;12.164;2022-07-01T14:58:25;3.03;;;2.72;;
55663;SDS011;41540;57.880;12.164;2022-07-01T15:08:26;4.10;;;3.00;;
55663;SDS011;41540;57.880;12.164;2022-07-01T15:18:26;3.88;;;3.58;;
55663;SDS011;41540;57.880;12.164;2022-07-01T15:28:27;3.45;;;3.15;;
55663;SDS011;41540;57.880;12.164;2022-07-01T15:48:28;3.47;;;3.17;;
55663;SDS011;41540;57.880;12.164;2022-07-01T15:58:28;4.35;;;3.60;;
55663;SDS011;41540;57.880;12.164;2022-07-01T16:18:33;6.53;;;3.17;;
55663;SDS011;41540;57.880;12.164;2022-07-01T16:28:34;4.95;;;4.10;;
55663;SDS011;41540;57.880;12.164;2022-07-01T16:38:47;4.95;;;4.47;;
55663;SDS011;41540;57.880;12.164;2022-07-01T16:49:11;4.78;;;4.22;;
55663;SDS011;41540;57.880;12.164;2022-07-01T16:59:19;5.88;;;5.28;;
55663;SDS011;41540;57.880;12.164;2022-07-01T17:09:20;5.47;;;4.93;;
55663;SDS011;41540;57.880;12.164;2022-07-01T17:19:22;7.55;;;4.95;;
55663;SDS011;41540;57.880;12.164;2022-07-01T17:29:27;6.90;;;6.20;;
55663;SDS011;41540;57.880;12.164;2022-07-01T17:39:52;6.10;;;5.40;;
55663;SDS011;41540;57.880;12.164;2022-07-01T17:49:53;13.85;;;7.00;;
55663;SDS011;41540;57.880;12.164;2022-07-01T17:59:58;9.02;;;8.15;;
55663;SDS011;41540;57.880;12.164;2022-07-01T18:09:59;12.20;;;7.93;;
55663;SDS011;41540;57.880;12.164;2022-07-01T18:20:07;11.23;;;8.00;;
55663;SDS011;41540;57.880;12.164;2022-07-01T18:30:15;11.60;;;6.22;;
55663;SDS011;41540;57.880;12.164;2022-07-01T18:40:16;5.82;;;4.63;;
55663;SDS011;41540;57.880;12.164;2022-07-01T18:50:17;11.68;;;3.15;;
55663;SDS011;41540;57.880;12.164;2022-07-01T19:00:20;15.15;;;3.92;;
55663;SDS011;41540;57.880;12.164;2022-07-01T19:10:24;7.38;;;3.22;;
55663;SDS011;41540;57.880;12.164;2022-07-01T19:20:25;11.80;;;4.03;;
55663;SDS011;41540;57.880;12.164;2022-07-01T19:30:25;10.95;;;3.67;;
55663;SDS011;41540;57.880;12.164;2022-07-01T19:40:26;15.27;;;3.35;;
55663;SDS011;41540;57.880;12.164;2022-07-01T19:50:26;8.13;;;3.33;;
55663;SDS011;41540;57.880;12.164;2022-07-01T20:00:27;6.72;;;2.25;;
55663;SDS011;41540;57.880;12.164;2022-07-01T20:10:28;7.53;;;3.15;;
55663;SDS011;41540;57.880;12.164;2022-07-01T20:20:29;8.90;;;3.10;;
55663;SDS011;41540;57.880;12.164;2022-07-01T20:30:29;11.35;;;3.28;;
55663;SDS011;41540;57.880;12.164;2022-07-01T20:40:30;8.68;;;2.90;;
55663;SDS011;41540;57.880;12.164;2022-07-01T20:50:30;5.20;;;2.22;;
55663;SDS011;41540;57.880;12.164;2022-07-01T21:00:31;8.47;;;2.83;;
55663;SDS011;41540;57.880;12.164;2022-07-01T21:10:31;11.00;;;2.33;;
55663;SDS011;41540;57.880;12.164;2022-07-01T21:20:32;3.33;;;1.45;;
55663;SDS011;41540;57.880;12.164;2022-07-01T21:30:32;4.10;;;1.75;;
55663;SDS011;41540;57.880;12.164;2022-07-01T21:40:37;5.47;;;1.77;;
55663;SDS011;41540;57.880;12.164;2022-07-01T21:50:38;8.13;;;1.90;;
55663;SDS011;41540;57.880;12.164;2022-07-01T22:00:39;9.05;;;2.25;;
55663;SDS011;41540;57.880;12.164;2022-07-01T22:10:39;7.25;;;2.30;;
55663;SDS011;41540;57.880;12.164;2022-07-01T22:20:44;5.97;;;2.00;;
55663;SDS011;41540;57.880;12.164;2022-07-01T22:30:44;6.45;;;2.05;;
55663;SDS011;41540;57.880;12.164;2022-07-01T22:40:46;5.10;;;1.75;;
55663;SDS011;41540;57.880;12.164;2022-07-01T22:50:48;2.88;;;0.90;;
55663;SDS011;41540;57.880;12.164;2022-07-01T23:00:56;4.68;;;1.20;;
55663;SDS011;41540;57.880;12.164;2022-07-01T23:11:04;4.68;;;1.33;;
55663;SDS011;41540;57.880;12.164;2022-07-01T23:21:13;6.50;;;1.67;;
55663;SDS011;41540;57.880;12.164;2022-07-01T23:31:14;5.60;;;1.38;;
55663;SDS011;41540;57.880;12.164;2022-07-01T23:41:16;3.60;;;1.25;;
55663;SDS011;41540;57.880;12.164;2022-07-01T23:51:16;2.88;;;1.17;;
